Summary for KCOGRAND2

Redlands, Southcamp Road & Dakota Circle, Grand Junction, CO 81507
Join the PWSweather.com Network
View data in metric units
Latest Conditions
Updated 7:30:40 AM MDT Friday, Oct 31, 2014
Data Currently Today's Max Today's Min Today's Average
Temperature 45.9°F7.7°C 52.2°F11.2°C 41.2°F5.1°C 45.5°F7.5°C
Dew Point 14.5°F-9.7°C 17.1°F-8.3°C -2.2°F-19.0°C 10.7°F-11.8°C
Winds 6.0 mph NNW9.7 kmh NNW 6.0 mph N9.7 kmh N CalmCalm 3.5 mph5.6 kmh
Wind Gusts 6.7 mph10.8 kmh 11.0 mph17.7 kmh 2.7 mph4.3 kmh 6.0 mph9.7 kmh
Humidity 28% 37% 11% 25%
Pressure 25.19 in853.0 mb 25.22 in854.0 mb 25.19 in853.0 mb 25.20 in853.4 mb
Precipitation 0.00 in0.0 mm - - 0.00 in0.0 mm
Trends
 
Station Profile
Redlands, Southcamp Road & Dakota CircleGrand Junction, CO 81507

Lat: 39.055, Lon: -108.637
Elevation: 4870
Station Type: RadioShack WX200

Detailed Summary for Fri, Oct 31, 2014
Hour (MDT) Temperature Dew Point Humidity Winds Wind Gusts Pressure Precip Precip Rate Daily Precip Total
07:30 AM 45.9°F7.7°C 14.5°F-9.7°C 28% 6.0 mph NNW9.7 kmh NNW 6.7 mph10.8 kmh 25.19 in853.0 mb 0.00 in0.0 mm 0.00 in/hr0.0 mm/hr 0.00 in0.0 mm
07:25 AM 45.9°F7.7°C 14.5°F-9.7°C 28% 6.0 mph NNW9.7 kmh NNW 11.0 mph17.7 kmh 25.19 in853.0 mb 0.00 in0.0 mm 0.00 in/hr0.0 mm/hr 0.00 in0.0 mm
07:20 AM 45.9°F7.7°C 14.5°F-9.7°C 28% 6.0 mph N9.7 kmh N 9.2 mph14.8 kmh 25.19 in853.0 mb 0.00 in0.0 mm 0.00 in/hr0.0 mm/hr 0.00 in0.0 mm
07:15 AM 46.4°F8.0°C 15.1°F-9.4°C 28% 6.0 mph N9.7 kmh N 9.2 mph14.8 kmh 25.19 in853.0 mb 0.00 in0.0 mm 0.00 in/hr0.0 mm/hr 0.00 in0.0 mm
07:10 AM 46.6°F8.1°C 14.4°F-9.8°C 27% 6.0 mph N9.7 kmh N 7.8 mph12.6 kmh 25.19 in853.0 mb 0.00 in0.0 mm 0.00 in/hr0.0 mm/hr 0.00 in0.0 mm
07:05 AM 47.1°F8.4°C 14.9°F-9.5°C 27% 6.0 mph N9.7 kmh N 8.7 mph14.0 kmh 25.19 in853.0 mb 0.00 in0.0 mm 0.00 in/hr0.0 mm/hr 0.00 in0.0 mm
07:00 AM 47.3°F8.5°C 15.1°F-9.4°C 27% 6.0 mph N9.7 kmh N 10.1 mph16.3 kmh 25.19 in853.0 mb 0.00 in0.0 mm 0.00 in/hr0.0 mm/hr 0.00 in0.0 mm
06:55 AM 46.8°F8.2°C 15.4°F-9.2°C 28% 6.0 mph N9.7 kmh N 9.6 mph15.4 kmh 25.19 in853.0 mb 0.00 in0.0 mm 0.00 in/hr0.0 mm/hr 0.00 in0.0 mm
06:50 AM 45.7°F7.6°C 15.3°F-9.3°C 29% 5.0 mph N8.0 kmh N 7.8 mph12.6 kmh 25.19 in853.0 mb 0.00 in0.0 mm 0.00 in/hr0.0 mm/hr 0.00 in0.0 mm
06:45 AM 46.4°F8.0°C 16.0°F-8.9°C 29% 5.0 mph N8.0 kmh N 8.3 mph13.4 kmh 25.19 in853.0 mb 0.00 in0.0 mm 0.00 in/hr0.0 mm/hr 0.00 in0.0 mm
06:40 AM 45.0°F7.2°C 16.9°F-8.4°C 32% 5.0 mph NNE8.0 kmh NNE 9.2 mph14.8 kmh 25.19 in853.0 mb 0.00 in0.0 mm 0.00 in/hr0.0 mm/hr 0.00 in0.0 mm
06:35 AM 44.4°F6.9°C 17.1°F-8.3°C 33% 4.0 mph NNE6.4 kmh NNE 10.5 mph16.9 kmh 25.19 in853.0 mb 0.00 in0.0 mm 0.00 in/hr0.0 mm/hr 0.00 in0.0 mm
06:30 AM 42.4°F5.8°C 16.7°F-8.5°C 35% 3.0 mph NE4.8 kmh NE 6.3 mph10.1 kmh 25.19 in853.0 mb 0.00 in0.0 mm 0.00 in/hr0.0 mm/hr 0.00 in0.0 mm
06:25 AM 41.2°F5.1°C 16.3°F-8.7°C 36% 4.0 mph NE6.4 kmh NE 5.8 mph9.3 kmh 25.19 in853.0 mb 0.00 in0.0 mm 0.00 in/hr0.0 mm/hr 0.00 in0.0 mm
06:20 AM 41.2°F5.1°C 15.6°F-9.1°C 35% 4.0 mph NE6.4 kmh NE 6.3 mph10.1 kmh 25.19 in853.0 mb 0.00 in0.0 mm 0.00 in/hr0.0 mm/hr 0.00 in0.0 mm
06:15 AM 41.7°F5.4°C 14.7°F-9.6°C 33% 4.0 mph NNE6.4 kmh NNE 5.8 mph9.3 kmh 25.19 in853.0 mb 0.00 in0.0 mm 0.00 in/hr0.0 mm/hr 0.00 in0.0 mm
06:10 AM 43.2°F6.2°C 14.5°F-9.7°C 31% 4.0 mph N6.4 kmh N 7.4 mph11.9 kmh 25.19 in853.0 mb 0.00 in0.0 mm 0.00 in/hr0.0 mm/hr 0.00 in0.0 mm
06:05 AM 43.9°F6.6°C 14.5°F-9.7°C 30% 4.0 mph N6.4 kmh N 6.7 mph10.8 kmh 25.19 in853.0 mb 0.00 in0.0 mm 0.00 in/hr0.0 mm/hr 0.00 in0.0 mm
06:00 AM 45.5°F7.5°C 15.8°F-9.0°C 30% 5.0 mph NNW8.0 kmh NNW 5.8 mph9.3 kmh 25.19 in853.0 mb 0.00 in0.0 mm 0.00 in/hr0.0 mm/hr 0.00 in0.0 mm
05:55 AM 44.2°F6.8°C 14.7°F-9.6°C 30% 4.0 mph N6.4 kmh N 6.9 mph11.1 kmh 25.19 in853.0 mb 0.00 in0.0 mm 0.00 in/hr0.0 mm/hr 0.00 in0.0 mm
05:50 AM 44.4°F6.9°C 16.3°F-8.7°C 32% 3.0 mph 4.8 kmh 5.4 mph8.7 kmh 25.19 in853.0 mb 0.00 in0.0 mm 0.00 in/hr0.0 mm/hr 0.00 in0.0 mm
05:45 AM 43.0°F6.1°C 16.5°F-8.6°C 34% 2.0 mph 3.2 kmh 4.5 mph7.2 kmh 25.19 in853.0 mb 0.00 in0.0 mm 0.00 in/hr0.0 mm/hr 0.00 in0.0 mm
05:40 AM 41.7°F5.4°C 16.7°F-8.5°C 36% 2.0 mph NNE3.2 kmh NNE 4.5 mph7.2 kmh 25.19 in853.0 mb 0.00 in0.0 mm 0.00 in/hr0.0 mm/hr 0.00 in0.0 mm
05:35 AM 41.4°F5.2°C 17.1°F-8.3°C 37% 2.0 mph NE3.2 kmh NE 6.3 mph10.1 kmh 25.19 in853.0 mb 0.00 in0.0 mm 0.00 in/hr0.0 mm/hr 0.00 in0.0 mm
05:30 AM 41.2°F5.1°C 15.6°F-9.1°C 35% Calm Calm 3.1 mph5.0 kmh 25.19 in853.0 mb 0.00 in0.0 mm 0.00 in/hr0.0 mm/hr 0.00 in0.0 mm
05:25 AM 41.7°F5.4°C 15.4°F-9.2°C 34% 1.0 mph NE1.6 kmh NE 2.7 mph4.3 kmh 25.19 in853.0 mb 0.00 in0.0 mm 0.00 in/hr0.0 mm/hr 0.00 in0.0 mm
05:20 AM 42.1°F5.6°C 15.1°F-9.4°C 33% 4.0 mph NE6.4 kmh NE 6.3 mph10.1 kmh 25.19 in853.0 mb 0.00 in0.0 mm 0.00 in/hr0.0 mm/hr 0.00 in0.0 mm
05:15 AM 43.3°F6.3°C 15.4°F-9.2°C 32% 5.0 mph N8.0 kmh N 7.4 mph11.9 kmh 25.19 in853.0 mb 0.00 in0.0 mm 0.00 in/hr0.0 mm/hr 0.00 in0.0 mm
05:10 AM 43.9°F6.6°C 14.5°F-9.7°C 30% 5.0 mph N8.0 kmh N 6.9 mph11.1 kmh 25.19 in853.0 mb 0.00 in0.0 mm 0.00 in/hr0.0 mm/hr 0.00 in0.0 mm
05:05 AM 44.8°F7.1°C 15.3°F-9.3°C 30% 6.0 mph NNW9.7 kmh NNW 7.8 mph12.6 kmh 25.19 in853.0 mb 0.00 in0.0 mm 0.00 in/hr0.0 mm/hr 0.00 in0.0 mm
05:00 AM 45.1°F7.3°C 15.6°F-9.1°C 30% 5.0 mph N8.0 kmh N 7.8 mph12.6 kmh 25.19 in853.0 mb 0.00 in0.0 mm 0.00 in/hr0.0 mm/hr 0.00 in0.0 mm
04:55 AM 44.8°F7.1°C 16.0°F-8.9°C 31% 5.0 mph N8.0 kmh N 6.7 mph10.8 kmh 25.19 in853.0 mb 0.00 in0.0 mm 0.00 in/hr0.0 mm/hr 0.00 in0.0 mm
04:50 AM 43.3°F6.3°C 15.4°F-9.2°C 32% 4.0 mph NNE6.4 kmh NNE 6.3 mph10.1 kmh 25.19 in853.0 mb 0.00 in0.0 mm 0.00 in/hr0.0 mm/hr 0.00 in0.0 mm
04:45 AM 42.1°F5.6°C 14.4°F-9.8°C 32% 5.0 mph NE8.0 kmh NE 6.3 mph10.1 kmh 25.19 in853.0 mb 0.00 in0.0 mm 0.00 in/hr0.0 mm/hr 0.00 in0.0 mm
04:40 AM 43.0°F6.1°C 15.8°F-9.0°C 33% 4.0 mph NE6.4 kmh NE 5.8 mph9.3 kmh 25.19 in853.0 mb 0.00 in0.0 mm 0.00 in/hr0.0 mm/hr 0.00 in0.0 mm
04:35 AM 42.1°F5.6°C 15.1°F-9.4°C 33% 4.0 mph NE6.4 kmh NE 5.8 mph9.3 kmh 25.19 in853.0 mb 0.00 in0.0 mm 0.00 in/hr0.0 mm/hr 0.00 in0.0 mm
04:30 AM 42.1°F5.6°C 15.1°F-9.4°C 33% 4.0 mph NE6.4 kmh NE 4.9 mph7.9 kmh 25.19 in853.0 mb 0.00 in0.0 mm 0.00 in/hr0.0 mm/hr 0.00 in0.0 mm
04:25 AM 42.1°F5.6°C 13.6°F-10.2°C 31% 4.0 mph NE6.4 kmh NE 6.3 mph10.1 kmh 25.19 in853.0 mb 0.00 in0.0 mm 0.00 in/hr0.0 mm/hr 0.00 in0.0 mm
04:20 AM 42.4°F5.8°C 13.3°F-10.4°C 30% 3.0 mph NE4.8 kmh NE 4.9 mph7.9 kmh 25.19 in853.0 mb 0.00 in0.0 mm 0.00 in/hr0.0 mm/hr 0.00 in0.0 mm
04:15 AM 43.3°F6.3°C 13.3°F-10.4°C 29% 2.0 mph NE3.2 kmh NE 4.0 mph6.4 kmh 25.19 in853.0 mb 0.00 in0.0 mm 0.00 in/hr0.0 mm/hr 0.00 in0.0 mm
04:10 AM 43.3°F6.3°C 13.3°F-10.4°C 29% 1.0 mph NE1.6 kmh NE 3.6 mph5.8 kmh 25.19 in853.0 mb 0.00 in0.0 mm 0.00 in/hr0.0 mm/hr 0.00 in0.0 mm
04:05 AM 43.5°F6.4°C 13.5°F-10.3°C 29% 1.0 mph NE1.6 kmh NE 3.1 mph5.0 kmh 25.19 in853.0 mb 0.00 in0.0 mm 0.00 in/hr0.0 mm/hr 0.00 in0.0 mm
04:00 AM 43.7°F6.5°C 13.6°F-10.2°C 29% 2.0 mph NE3.2 kmh NE 3.6 mph5.8 kmh 25.19 in853.0 mb 0.00 in0.0 mm 0.00 in/hr0.0 mm/hr 0.00 in0.0 mm
03:55 AM 43.9°F6.6°C 12.9°F-10.6°C 28% 2.0 mph N3.2 kmh N 5.4 mph8.7 kmh 25.19 in853.0 mb 0.00 in0.0 mm 0.00 in/hr0.0 mm/hr 0.00 in0.0 mm
03:50 AM 45.3°F7.4°C 13.3°F-10.4°C 27% 2.0 mph NNW3.2 kmh NNW 4.0 mph6.4 kmh 25.19 in853.0 mb 0.00 in0.0 mm 0.00 in/hr0.0 mm/hr 0.00 in0.0 mm
03:45 AM 46.2°F7.9°C 11.5°F-11.4°C 24% 2.0 mph NNW3.2 kmh NNW 4.5 mph7.2 kmh 25.19 in853.0 mb 0.00 in0.0 mm 0.00 in/hr0.0 mm/hr 0.00 in0.0 mm
03:40 AM 47.1°F8.4°C 12.2°F-11.0°C 24% 3.0 mph NNW4.8 kmh NNW 5.4 mph8.7 kmh 25.19 in853.0 mb 0.00 in0.0 mm 0.00 in/hr0.0 mm/hr 0.00 in0.0 mm
03:35 AM 47.5°F8.6°C 9.5°F-12.5°C 21% 3.0 mph NNW4.8 kmh NNW 6.3 mph10.1 kmh 25.19 in853.0 mb 0.00 in0.0 mm 0.00 in/hr0.0 mm/hr 0.00 in0.0 mm
03:30 AM 48.7°F9.3°C 8.4°F-13.1°C 19% 3.0 mph NNW4.8 kmh NNW 5.4 mph8.7 kmh 25.19 in853.0 mb 0.00 in0.0 mm 0.00 in/hr0.0 mm/hr 0.00 in0.0 mm
03:25 AM 48.0°F8.9°C 7.7°F-13.5°C 19% 3.0 mph NNW4.8 kmh NNW 4.9 mph7.9 kmh 25.19 in853.0 mb 0.00 in0.0 mm 0.00 in/hr0.0 mm/hr 0.00 in0.0 mm
03:20 AM 48.7°F9.3°C 8.4°F-13.1°C 19% 4.0 mph NNW6.4 kmh NNW 4.0 mph6.4 kmh 25.19 in853.0 mb 0.00 in0.0 mm 0.00 in/hr0.0 mm/hr 0.00 in0.0 mm
03:15 AM 48.4°F9.1°C 8.1°F-13.3°C 19% 4.0 mph N6.4 kmh N 6.9 mph11.1 kmh 25.19 in853.0 mb 0.00 in0.0 mm 0.00 in/hr0.0 mm/hr 0.00 in0.0 mm
03:10 AM 47.3°F8.5°C 7.2°F-13.8°C 19% 2.0 mph NE3.2 kmh NE 5.4 mph8.7 kmh 25.19 in853.0 mb 0.00 in0.0 mm 0.00 in/hr0.0 mm/hr 0.00 in0.0 mm
03:05 AM 47.3°F8.5°C 7.2°F-13.8°C 19% Calm Calm 3.1 mph5.0 kmh 25.19 in853.0 mb 0.00 in0.0 mm 0.00 in/hr0.0 mm/hr 0.00 in0.0 mm
03:00 AM 46.8°F8.2°C 6.8°F-14.0°C 19% Calm Calm 2.7 mph4.3 kmh 25.19 in853.0 mb 0.00 in0.0 mm 0.00 in/hr0.0 mm/hr 0.00 in0.0 mm
02:55 AM 46.9°F8.3°C 6.8°F-14.0°C 19% 1.0 mph NE1.6 kmh NE 3.6 mph5.8 kmh 25.19 in853.0 mb 0.00 in0.0 mm 0.00 in/hr0.0 mm/hr 0.00 in0.0 mm
02:50 AM 46.8°F8.2°C 6.8°F-14.0°C 19% 2.0 mph NE3.2 kmh NE 4.9 mph7.9 kmh 25.22 in854.0 mb 0.00 in0.0 mm 0.00 in/hr0.0 mm/hr 0.00 in0.0 mm
02:45 AM 47.5°F8.6°C 9.5°F-12.5°C 21% 3.0 mph ENE4.8 kmh ENE 4.9 mph7.9 kmh 25.22 in854.0 mb 0.00 in0.0 mm 0.00 in/hr0.0 mm/hr 0.00 in0.0 mm
02:40 AM 46.9°F8.3°C 12.0°F-11.1°C 24% 2.0 mph ENE3.2 kmh ENE 4.5 mph7.2 kmh 25.22 in854.0 mb 0.00 in0.0 mm 0.00 in/hr0.0 mm/hr 0.00 in0.0 mm
02:35 AM 45.3°F7.4°C 13.3°F-10.4°C 27% 2.0 mph ENE3.2 kmh ENE 4.5 mph7.2 kmh 25.22 in854.0 mb 0.00 in0.0 mm 0.00 in/hr0.0 mm/hr 0.00 in0.0 mm
02:30 AM 44.1°F6.7°C 12.2°F-11.0°C 27% 3.0 mph ENE4.8 kmh ENE 5.4 mph8.7 kmh 25.22 in854.0 mb 0.00 in0.0 mm 0.00 in/hr0.0 mm/hr 0.00 in0.0 mm
02:25 AM 42.8°F6.0°C 9.5°F-12.5°C 25% 4.0 mph NE6.4 kmh NE 5.4 mph8.7 kmh 25.22 in854.0 mb 0.00 in0.0 mm 0.00 in/hr0.0 mm/hr 0.00 in0.0 mm
02:20 AM 45.9°F7.7°C 9.1°F-12.7°C 22% 3.0 mph NNE4.8 kmh NNE 5.8 mph9.3 kmh 25.19 in853.0 mb 0.00 in0.0 mm 0.00 in/hr0.0 mm/hr 0.00 in0.0 mm
02:15 AM 45.7°F7.6°C 9.0°F-12.8°C 22% 2.0 mph NNE3.2 kmh NNE 5.4 mph8.7 kmh 25.19 in853.0 mb 0.00 in0.0 mm 0.00 in/hr0.0 mm/hr 0.00 in0.0 mm
02:10 AM 45.9°F7.7°C 11.1°F-11.6°C 24% 3.0 mph NNE4.8 kmh NNE 6.3 mph10.1 kmh 25.19 in853.0 mb 0.00 in0.0 mm 0.00 in/hr0.0 mm/hr 0.00 in0.0 mm
02:05 AM 44.4°F6.9°C 10.8°F-11.8°C 25% 2.0 mph NNE3.2 kmh NNE 4.5 mph7.2 kmh 25.19 in853.0 mb 0.00 in0.0 mm 0.00 in/hr0.0 mm/hr 0.00 in0.0 mm
02:00 AM 44.8°F7.1°C 11.1°F-11.6°C 25% 2.0 mph NNE3.2 kmh NNE 4.5 mph7.2 kmh 25.19 in853.0 mb 0.00 in0.0 mm 0.00 in/hr0.0 mm/hr 0.00 in0.0 mm
01:55 AM 44.8°F7.1°C 8.2°F-13.2°C 22% 1.0 mph NNE1.6 kmh NNE 3.6 mph5.8 kmh 25.19 in853.0 mb 0.00 in0.0 mm 0.00 in/hr0.0 mm/hr 0.00 in0.0 mm
01:50 AM 46.0°F7.8°C 9.3°F-12.6°C 22% 2.0 mph NNE3.2 kmh NNE 3.1 mph5.0 kmh 25.19 in853.0 mb 0.00 in0.0 mm 0.00 in/hr0.0 mm/hr 0.00 in0.0 mm
01:45 AM 46.2°F7.9°C 9.5°F-12.5°C 22% 3.0 mph NNE4.8 kmh NNE 3.6 mph5.8 kmh 25.19 in853.0 mb 0.00 in0.0 mm 0.00 in/hr0.0 mm/hr 0.00 in0.0 mm
01:40 AM 45.9°F7.7°C 9.1°F-12.7°C 22% 3.0 mph NNE4.8 kmh NNE 4.0 mph6.4 kmh 25.19 in853.0 mb 0.00 in0.0 mm 0.00 in/hr0.0 mm/hr 0.00 in0.0 mm
01:35 AM 45.9°F7.7°C 5.9°F-14.5°C 19% 3.0 mph NNE4.8 kmh NNE 4.0 mph6.4 kmh 25.19 in853.0 mb 0.00 in0.0 mm 0.00 in/hr0.0 mm/hr 0.00 in0.0 mm
01:30 AM 46.6°F8.1°C 6.6°F-14.1°C 19% 3.0 mph NNE4.8 kmh NNE 5.4 mph8.7 kmh 25.19 in853.0 mb 0.00 in0.0 mm 0.00 in/hr0.0 mm/hr 0.00 in0.0 mm
01:25 AM 46.4°F8.0°C 6.4°F-14.2°C 19% 2.0 mph NNE3.2 kmh NNE 4.5 mph7.2 kmh 25.19 in853.0 mb 0.00 in0.0 mm 0.00 in/hr0.0 mm/hr 0.00 in0.0 mm
01:20 AM 45.5°F7.5°C 5.7°F-14.6°C 19% Calm Calm 3.6 mph5.8 kmh 25.22 in854.0 mb 0.00 in0.0 mm 0.00 in/hr0.0 mm/hr 0.00 in0.0 mm
01:15 AM 45.7°F7.6°C 5.9°F-14.5°C 19% 2.0 mph NNE3.2 kmh NNE 3.6 mph5.8 kmh 25.22 in854.0 mb 0.00 in0.0 mm 0.00 in/hr0.0 mm/hr 0.00 in0.0 mm
01:10 AM 46.4°F8.0°C 6.4°F-14.2°C 19% 4.0 mph N6.4 kmh N 5.8 mph9.3 kmh 25.22 in854.0 mb 0.00 in0.0 mm 0.00 in/hr0.0 mm/hr 0.00 in0.0 mm
01:05 AM 46.9°F8.3°C 4.5°F-15.3°C 17% 5.0 mph N8.0 kmh N 6.7 mph10.8 kmh 25.22 in854.0 mb 0.00 in0.0 mm 0.00 in/hr0.0 mm/hr 0.00 in0.0 mm
12:59 AM 48.2°F9.0°C 4.1°F-15.5°C 16% 6.0 mph NNW9.7 kmh NNW 9.2 mph14.8 kmh 25.22 in854.0 mb 0.00 in0.0 mm 0.00 in/hr0.0 mm/hr 0.00 in0.0 mm
12:54 AM 47.8°F8.8°C 3.9°F-15.6°C 16% 6.0 mph N9.7 kmh N 9.2 mph14.8 kmh 25.22 in854.0 mb 0.00 in0.0 mm 0.00 in/hr0.0 mm/hr 0.00 in0.0 mm
12:49 AM 47.3°F8.5°C 3.4°F-15.9°C 16% 4.0 mph N6.4 kmh N 6.9 mph11.1 kmh 25.22 in854.0 mb 0.00 in0.0 mm 0.00 in/hr0.0 mm/hr 0.00 in0.0 mm
12:44 AM 46.2°F7.9°C -0.2°F-17.9°C 14% 4.0 mph N6.4 kmh N 5.4 mph8.7 kmh 25.22 in854.0 mb 0.00 in0.0 mm 0.00 in/hr0.0 mm/hr 0.00 in0.0 mm
12:39 AM 47.7°F8.7°C 0.9°F-17.3°C 14% 5.0 mph N8.0 kmh N 6.9 mph11.1 kmh 25.22 in854.0 mb 0.00 in0.0 mm 0.00 in/hr0.0 mm/hr 0.00 in0.0 mm
12:34 AM 50.2°F10.1°C -2.2°F-19.0°C 11% 6.0 mph NNW9.7 kmh NNW 8.3 mph13.4 kmh 25.22 in854.0 mb 0.00 in0.0 mm 0.00 in/hr0.0 mm/hr 0.00 in0.0 mm
12:29 AM 50.4°F10.2°C -2.2°F-19.0°C 11% 6.0 mph NW9.7 kmh NW 8.3 mph13.4 kmh 25.22 in854.0 mb 0.00 in0.0 mm 0.00 in/hr0.0 mm/hr 0.00 in0.0 mm
12:24 AM 50.5°F10.3°C -2.0°F-18.9°C 11% 6.0 mph NW9.7 kmh NW 8.3 mph13.4 kmh 25.22 in854.0 mb 0.00 in0.0 mm 0.00 in/hr0.0 mm/hr 0.00 in0.0 mm
12:19 AM 50.4°F10.2°C -2.2°F-19.0°C 11% 5.0 mph NNW8.0 kmh NNW 7.8 mph12.6 kmh 25.22 in854.0 mb 0.00 in0.0 mm 0.00 in/hr0.0 mm/hr 0.00 in0.0 mm
12:14 AM 51.6°F10.9°C -1.1°F-18.4°C 11% 4.0 mph N6.4 kmh N 6.3 mph10.1 kmh 25.22 in854.0 mb 0.00 in0.0 mm 0.00 in/hr0.0 mm/hr 0.00 in0.0 mm
12:09 AM 51.8°F11.0°C -0.9°F-18.3°C 11% 3.0 mph N4.8 kmh N 5.4 mph8.7 kmh 25.22 in854.0 mb 0.00 in0.0 mm 0.00 in/hr0.0 mm/hr 0.00 in0.0 mm
12:04 AM 52.2°F11.2°C -0.8°F-18.2°C 11% 2.0 mph N3.2 kmh N 4.9 mph7.9 kmh 25.22 in854.0 mb 0.00 in0.0 mm 0.00 in/hr0.0 mm/hr 0.00 in0.0 mm
WeatherForYou.com, LLC is not responsible for any damages or problems caused by this service. Current weather conditions are obtained from the closest station including government and personal stations which may have varying degrees of accuracy. Weather forecasts are derived from the NOAA NDFD and obtained through HAMweather's Aeris Weather API. Like all things, this site belongs to Jesus Christ... He just trusts me to maintain it. If you have any questions or comments email webmaster@weatherforyou.com

Copyright © 2014, WeatherForYou.com LLC. All rights reserved.